Time;durP1;ratioP1;P1;durP2;ratioP2;P2;SDS_P1;SDS_P2;PMS_P1;PMS_P2;Temp;Humidity;BMP_temperature;BMP_pressure;BME280_temperature;BME280_humidity;BME280_pressure;Samples;Min_cycle;Max_cycle;Signal;HPM_P1;HPM_P2
2023/03/07 00:00:25;;;;;;;;;;;3.50;99.90;;;;;;4881174;29;19954;-61
2023/03/07 00:02:51;;;;;;;;;;;3.50;99.90;;;;;;4864105;29;19935;-61
2023/03/07 00:05:17;;;;;;;;;;;3.60;99.90;;;;;;4880913;29;19928;-61
2023/03/07 00:07:42;;;;;;;;;;;3.50;99.90;;;;;;4880532;29;19992;-61
2023/03/07 00:10:08;;;;;;;;;;;3.60;99.90;;;;;;4881209;29;20384;-61
2023/03/07 00:12:34;;;;;;;;;;;3.60;99.90;;;;;;4849121;29;20019;-62
2023/03/07 00:14:59;;;;;;;;;;;3.60;99.90;;;;;;4880436;29;19935;-61
2023/03/07 00:17:25;;;;;;;;;;;3.60;99.90;;;;;;4864465;29;19932;-61
2023/03/07 00:19:50;;;;;;;;;;;3.60;99.90;;;;;;4880139;29;19932;-61
2023/03/07 00:22:16;;;;;;;;;;;3.60;99.90;;;;;;4880705;29;19935;-62
2023/03/07 00:24:42;;;;;;;;;;;3.50;99.90;;;;;;4880244;29;19983;-63
2023/03/07 00:27:07;;;;;;;;;;;3.60;99.90;;;;;;4863874;29;20328;-61
2023/03/07 00:29:33;;;;;;;;;;;3.60;99.90;;;;;;4880373;29;19956;-61
2023/03/07 00:31:58;;;;;;;;;;;3.50;99.90;;;;;;4880160;29;19934;-60
2023/03/07 00:34:24;;;;;;;;;;;3.50;99.90;;;;;;4863787;29;20015;-61
2023/03/07 00:36:49;;;;;;;;;;;3.40;99.90;;;;;;4863661;29;19928;-61
2023/03/07 00:39:15;;;;;;;;;;;3.50;99.90;;;;;;4863705;29;19928;-61
2023/03/07 00:41:41;;;;;;;;;;;3.50;99.90;;;;;;4880147;29;19984;-61
2023/03/07 00:44:06;;;;;;;;;;;3.40;99.90;;;;;;4879846;29;20379;-60
2023/03/07 00:46:32;;;;;;;;;;;3.40;99.90;;;;;;4848042;29;19928;-61
2023/03/07 00:48:57;;;;;;;;;;;3.30;99.90;;;;;;4879779;29;19928;-61
2023/03/07 00:51:23;;;;;;;;;;;3.30;99.90;;;;;;4879076;29;20296;-61
2023/03/07 00:53:49;;;;;;;;;;;3.30;99.90;;;;;;4879090;29;19927;-61
2023/03/07 00:56:16;;;;;;;;;;;3.40;99.90;;;;;;4880130;29;19947;-61
2023/03/07 00:58:42;;;;;;;;;;;3.40;99.90;;;;;;4879927;29;19978;-60
2023/03/07 01:01:08;;;;;;;;;;;3.50;99.90;;;;;;4879638;29;19970;-60
2023/03/07 01:03:34;;;;;;;;;;;3.40;99.90;;;;;;4863228;29;19935;-61
2023/03/07 01:06:04;;;;;;;;;;;3.50;99.90;;;;;;4879440;29;20388;-61
2023/03/07 01:08:30;;;;;;;;;;;3.40;99.90;;;;;;4863467;29;20007;-60
2023/03/07 01:11:00;;;;;;;;;;;3.50;99.90;;;;;;4862775;29;19991;-61
2023/03/07 01:13:26;;;;;;;;;;;3.50;99.90;;;;;;4863339;29;19932;-61
2023/03/07 01:15:52;;;;;;;;;;;3.50;99.90;;;;;;4862949;29;19932;-61
2023/03/07 01:18:17;;;;;;;;;;;3.50;99.90;;;;;;4879691;29;19927;-61
2023/03/07 01:20:43;;;;;;;;;;;3.50;99.90;;;;;;4879511;29;19928;-60
2023/03/07 01:23:09;;;;;;;;;;;3.60;99.90;;;;;;4879112;29;19950;-60
2023/03/07 01:25:38;;;;;;;;;;;3.50;99.90;;;;;;4878974;29;20031;-60
2023/03/07 01:28:04;;;;;;;;;;;3.50;99.90;;;;;;4879100;29;19935;-61
2023/03/07 01:30:30;;;;;;;;;;;3.50;99.90;;;;;;4879262;29;20071;-61
2023/03/07 01:32:56;;;;;;;;;;;3.60;99.90;;;;;;4879014;29;19988;-61
2023/03/07 01:35:22;;;;;;;;;;;3.60;99.90;;;;;;4879468;29;20022;-61
2023/03/07 01:37:48;;;;;;;;;;;3.60;99.90;;;;;;4878280;29;19984;-61
2023/03/07 01:40:14;;;;;;;;;;;3.60;99.90;;;;;;4878862;29;19930;-60
2023/03/07 01:42:40;;;;;;;;;;;3.50;99.90;;;;;;4862714;29;19928;-60
2023/03/07 01:45:07;;;;;;;;;;;3.50;99.90;;;;;;4878729;29;19934;-60
2023/03/07 01:47:33;;;;;;;;;;;3.50;99.90;;;;;;4878628;29;19927;-59
2023/03/07 01:50:00;;;;;;;;;;;3.60;99.90;;;;;;4862229;29;19932;-59
2023/03/07 01:52:31;;;;;;;;;;;3.50;99.90;;;;;;4878923;29;20538;-60
2023/03/07 01:55:12;;;;;;;;;;;3.40;99.90;;;;;;4862250;29;19934;-62
2023/03/07 01:57:39;;;;;;;;;;;3.40;99.90;;;;;;4878875;29;19931;-60
2023/03/07 02:00:09;;;;;;;;;;;3.40;99.90;;;;;;4878450;29;19932;-61
2023/03/07 02:02:36;;;;;;;;;;;3.30;99.90;;;;;;4862467;29;19931;-60
2023/03/07 02:05:25;;;;;;;;;;;3.30;99.90;;;;;;4878370;29;19928;-59
2023/03/07 02:07:51;;;;;;;;;;;3.30;99.90;;;;;;4873191;29;19931;-60
2023/03/07 02:10:19;;;;;;;;;;;3.20;99.90;;;;;;4877962;29;19927;-59
2023/03/07 02:12:44;;;;;;;;;;;3.20;99.90;;;;;;4878655;29;19978;-60
2023/03/07 02:15:11;;;;;;;;;;;3.20;99.90;;;;;;4877750;29;19982;-60
2023/03/07 02:17:37;;;;;;;;;;;3.10;99.90;;;;;;4878445;29;19974;-59
2023/03/07 02:20:04;;;;;;;;;;;3.10;99.90;;;;;;4846577;29;19969;-60
2023/03/07 02:22:30;;;;;;;;;;;3.10;99.90;;;;;;4878573;29;19988;-61
2023/03/07 02:25:04;;;;;;;;;;;3.10;99.90;;;;;;4878573;29;19927;-60
2023/03/07 02:27:32;;;;;;;;;;;3.10;99.90;;;;;;4878559;29;19976;-60
2023/03/07 02:29:58;;;;;;;;;;;3.10;99.90;;;;;;4861747;29;19980;-60
2023/03/07 02:32:23;;;;;;;;;;;3.20;99.90;;;;;;4878086;29;19928;-62
2023/03/07 02:34:49;;;;;;;;;;;3.20;99.90;;;;;;4861704;29;19927;-59
2023/03/07 02:37:16;;;;;;;;;;;3.20;99.90;;;;;;4877264;29;19932;-59
2023/03/07 02:39:42;;;;;;;;;;;3.20;99.90;;;;;;4878070;29;20269;-60
2023/03/07 02:42:14;;;;;;;;;;;3.10;99.90;;;;;;4877834;29;19935;-62
2023/03/07 02:44:42;;;;;;;;;;;3.10;99.90;;;;;;4878317;29;19983;-60
2023/03/07 02:47:08;;;;;;;;;;;3.00;99.90;;;;;;4877861;29;19928;-60
2023/03/07 02:49:35;;;;;;;;;;;3.00;99.90;;;;;;4878081;29;19928;-60
2023/03/07 02:52:01;;;;;;;;;;;3.00;99.90;;;;;;4878174;29;19928;-60
2023/03/07 02:54:26;;;;;;;;;;;3.00;99.90;;;;;;4877814;29;19950;-60
2023/03/07 02:56:52;;;;;;;;;;;2.90;99.90;;;;;;4861791;29;19978;-60
2023/03/07 02:59:18;;;;;;;;;;;2.90;99.90;;;;;;4877621;29;19956;-60
2023/03/07 03:01:43;;;;;;;;;;;2.80;99.90;;;;;;4878230;29;19928;-60
2023/03/07 03:04:09;;;;;;;;;;;2.90;99.90;;;;;;4860851;29;19928;-60
2023/03/07 03:06:34;;;;;;;;;;;2.90;99.90;;;;;;4878309;29;19938;-60
2023/03/07 03:09:01;;;;;;;;;;;2.90;99.90;;;;;;4878049;29;19927;-60
2023/03/07 03:11:26;;;;;;;;;;;2.80;99.90;;;;;;4877588;29;19992;-60
2023/03/07 03:13:52;;;;;;;;;;;2.80;99.90;;;;;;4878093;29;19927;-63
2023/03/07 03:16:17;;;;;;;;;;;2.80;99.90;;;;;;4877764;29;20554;-60
2023/03/07 03:18:43;;;;;;;;;;;2.80;99.90;;;;;;4878301;29;19935;-59
2023/03/07 03:21:09;;;;;;;;;;;2.80;99.90;;;;;;4877600;29;19935;-62
2023/03/07 03:23:35;;;;;;;;;;;2.80;99.90;;;;;;4861175;29;19954;-60
2023/03/07 03:26:04;;;;;;;;;;;2.80;99.90;;;;;;4878081;29;20317;-61
2023/03/07 03:28:30;;;;;;;;;;;2.80;99.90;;;;;;4877789;29;19935;-61
2023/03/07 03:30:56;;;;;;;;;;;2.80;99.90;;;;;;4876740;29;19936;-61
2023/03/07 03:33:22;;;;;;;;;;;2.80;99.90;;;;;;4860904;29;20015;-60
2023/03/07 03:35:47;;;;;;;;;;;2.70;99.90;;;;;;4877720;29;20031;-61
2023/03/07 03:38:13;;;;;;;;;;;2.70;99.90;;;;;;4860710;29;19934;-60
2023/03/07 03:40:38;;;;;;;;;;;2.70;99.90;;;;;;4877350;29;20340;-63
2023/03/07 03:43:04;;;;;;;;;;;2.70;99.90;;;;;;4877111;29;19935;-61
2023/03/07 03:45:29;;;;;;;;;;;2.70;99.90;;;;;;4877553;29;19983;-62
2023/03/07 03:47:55;;;;;;;;;;;2.70;99.90;;;;;;4878134;29;19939;-61
2023/03/07 03:50:20;;;;;;;;;;;2.70;99.90;;;;;;4880912;29;19983;-62
2023/03/07 03:52:46;;;;;;;;;;;2.60;99.90;;;;;;4881011;29;19982;-61
2023/03/07 03:55:12;;;;;;;;;;;2.60;99.90;;;;;;4880841;29;20035;-61
2023/03/07 03:57:37;;;;;;;;;;;2.60;99.90;;;;;;4863956;29;19928;-61
2023/03/07 04:00:04;;;;;;;;;;;2.60;99.90;;;;;;4881134;29;19928;-61
2023/03/07 04:02:32;;;;;;;;;;;2.60;99.90;;;;;;4880142;29;20376;-61
2023/03/07 04:04:57;;;;;;;;;;;2.60;99.90;;;;;;4881072;29;19967;-62
2023/03/07 04:07:24;;;;;;;;;;;2.50;99.90;;;;;;4864185;29;20312;-61
2023/03/07 04:09:49;;;;;;;;;;;2.50;99.90;;;;;;4881053;29;19978;-61
2023/03/07 04:12:15;;;;;;;;;;;2.50;99.90;;;;;;4880654;29;19971;-61
2023/03/07 04:14:40;;;;;;;;;;;2.50;99.90;;;;;;4880470;29;19935;-62
2023/03/07 04:17:06;;;;;;;;;;;2.60;99.90;;;;;;4864258;29;20403;-61
2023/03/07 04:19:31;;;;;;;;;;;2.60;99.90;;;;;;4879291;29;19927;-61
2023/03/07 04:21:57;;;;;;;;;;;2.60;99.90;;;;;;4864386;29;19927;-61
2023/03/07 04:24:23;;;;;;;;;;;2.60;99.90;;;;;;4879774;29;20280;-59
2023/03/07 04:26:48;;;;;;;;;;;2.70;99.90;;;;;;4880647;29;20018;-61
2023/03/07 04:29:14;;;;;;;;;;;2.60;99.90;;;;;;4864331;29;19927;-60
2023/03/07 04:31:40;;;;;;;;;;;2.60;99.90;;;;;;4880267;29;19931;-60
2023/03/07 04:34:05;;;;;;;;;;;2.60;99.90;;;;;;4880341;29;19936;-60
2023/03/07 04:36:31;;;;;;;;;;;2.60;99.90;;;;;;4879953;29;20337;-60
2023/03/07 04:38:56;;;;;;;;;;;2.60;99.90;;;;;;4880720;29;19976;-60
2023/03/07 04:41:24;;;;;;;;;;;2.60;99.90;;;;;;4863357;29;19932;-62
2023/03/07 04:43:50;;;;;;;;;;;2.60;99.90;;;;;;4863733;29;19932;-60
2023/03/07 04:46:16;;;;;;;;;;;2.70;99.90;;;;;;4879857;29;20360;-62
2023/03/07 04:48:42;;;;;;;;;;;2.60;99.90;;;;;;4863026;29;20014;-60
2023/03/07 04:51:08;;;;;;;;;;;2.60;99.90;;;;;;4848463;29;19978;-60
2023/03/07 04:53:33;;;;;;;;;;;2.60;99.90;;;;;;4847994;29;20368;-60
2023/03/07 04:56:04;;;;;;;;;;;2.60;99.90;;;;;;4879971;29;19939;-60
2023/03/07 04:58:32;;;;;;;;;;;2.60;99.90;;;;;;4879804;29;19943;-60
2023/03/07 05:00:59;;;;;;;;;;;2.60;99.90;;;;;;4879025;29;19928;-60
2023/03/07 05:03:25;;;;;;;;;;;2.70;99.90;;;;;;4879604;29;19934;-62
2023/03/07 05:05:51;;;;;;;;;;;2.70;99.90;;;;;;4879840;29;19935;-61
2023/03/07 05:08:16;;;;;;;;;;;2.70;99.90;;;;;;4879859;29;19927;-60
2023/03/07 05:10:42;;;;;;;;;;;2.70;99.90;;;;;;4862838;29;20425;-60
2023/03/07 05:13:08;;;;;;;;;;;2.80;99.90;;;;;;4879923;29;19928;-60
2023/03/07 05:15:34;;;;;;;;;;;2.80;99.90;;;;;;4879421;29;19934;-61
2023/03/07 05:17:59;;;;;;;;;;;2.90;99.90;;;;;;4878371;29;19935;-61
2023/03/07 05:20:25;;;;;;;;;;;2.90;99.90;;;;;;4879708;29;20023;-62
2023/03/07 05:22:51;;;;;;;;;;;2.80;99.90;;;;;;4879349;29;19927;-61
2023/03/07 05:25:17;;;;;;;;;;;2.80;99.90;;;;;;4879294;29;20272;-61
2023/03/07 05:27:42;;;;;;;;;;;2.80;99.90;;;;;;4879083;29;20027;-61
2023/03/07 05:30:08;;;;;;;;;;;2.80;99.90;;;;;;4879601;29;19935;-60
2023/03/07 05:32:34;;;;;;;;;;;2.70;99.90;;;;;;4862652;29;19979;-65
2023/03/07 05:34:59;;;;;;;;;;;2.80;99.90;;;;;;4879487;29;19923;-61
2023/03/07 05:37:25;;;;;;;;;;;2.70;99.90;;;;;;4847696;29;19979;-61
2023/03/07 05:39:50;;;;;;;;;;;2.80;99.90;;;;;;4879050;29;19927;-61
2023/03/07 05:42:18;;;;;;;;;;;2.80;99.90;;;;;;4862053;29;21820;-61
2023/03/07 05:44:43;;;;;;;;;;;2.80;99.90;;;;;;4879041;29;19928;-60
2023/03/07 05:47:09;;;;;;;;;;;2.80;99.90;;;;;;4878406;29;19927;-60
2023/03/07 05:49:34;;;;;;;;;;;2.70;99.90;;;;;;4878776;29;20378;-60
2023/03/07 05:52:00;;;;;;;;;;;2.70;99.90;;;;;;4879396;29;20277;-60
2023/03/07 05:54:26;;;;;;;;;;;2.70;99.90;;;;;;4879278;29;20030;-60
2023/03/07 05:56:51;;;;;;;;;;;2.70;99.90;;;;;;4878505;29;19935;-60
2023/03/07 05:59:17;;;;;;;;;;;2.70;99.90;;;;;;4878953;29;20427;-61
2023/03/07 06:01:42;;;;;;;;;;;2.60;99.90;;;;;;4878608;29;19983;-60
2023/03/07 06:04:08;;;;;;;;;;;2.60;99.90;;;;;;4877879;29;19928;-60
2023/03/07 06:06:34;;;;;;;;;;;2.70;99.90;;;;;;4861799;29;19932;-60
2023/03/07 06:08:59;;;;;;;;;;;2.70;99.90;;;;;;4861989;29;19975;-60
2023/03/07 06:11:25;;;;;;;;;;;2.50;99.90;;;;;;4878613;29;19967;-61
2023/03/07 06:13:51;;;;;;;;;;;2.50;99.90;;;;;;4878431;29;19956;-60
2023/03/07 06:16:16;;;;;;;;;;;2.40;99.90;;;;;;4846712;29;19975;-60
2023/03/07 06:18:42;;;;;;;;;;;2.40;99.90;;;;;;4846076;29;19939;-61
2023/03/07 06:21:08;;;;;;;;;;;2.40;99.90;;;;;;4862224;29;19928;-59
2023/03/07 06:23:34;;;;;;;;;;;2.30;99.90;;;;;;4846742;29;19927;-60
2023/03/07 06:26:00;;;;;;;;;;;2.30;99.90;;;;;;4861773;29;19928;-62
2023/03/07 06:28:26;;;;;;;;;;;2.20;99.90;;;;;;4878309;29;20018;-60
2023/03/07 06:30:52;;;;;;;;;;;2.30;99.90;;;;;;4861366;29;19927;-60
2023/03/07 06:33:18;;;;;;;;;;;2.30;99.90;;;;;;4878492;29;20003;-60
2023/03/07 06:35:43;;;;;;;;;;;2.40;99.90;;;;;;4878082;29;20287;-60
2023/03/07 06:38:09;;;;;;;;;;;2.40;99.90;;;;;;4878294;29;19927;-60
2023/03/07 06:40:35;;;;;;;;;;;2.40;99.90;;;;;;4878250;29;20452;-60
2023/03/07 06:43:01;;;;;;;;;;;2.50;99.90;;;;;;4861374;29;19975;-60
2023/03/07 06:45:26;;;;;;;;;;;2.50;99.90;;;;;;4878217;29;19987;-60
2023/03/07 06:47:52;;;;;;;;;;;2.50;99.90;;;;;;4877983;29;19927;-61
2023/03/07 06:50:18;;;;;;;;;;;2.50;99.90;;;;;;4878352;29;19935;-62
2023/03/07 06:52:43;;;;;;;;;;;2.50;99.90;;;;;;4877683;29;19979;-61
2023/03/07 06:55:09;;;;;;;;;;;2.60;99.90;;;;;;4877876;29;20019;-60
2023/03/07 06:57:35;;;;;;;;;;;2.60;99.90;;;;;;4878222;29;19931;-62
2023/03/07 07:00:04;;;;;;;;;;;2.60;99.90;;;;;;4877780;29;20367;-62
2023/03/07 07:02:30;;;;;;;;;;;2.60;99.90;;;;;;4861426;29;20414;-61
2023/03/07 07:04:57;;;;;;;;;;;2.80;99.90;;;;;;4877592;29;20014;-59
2023/03/07 07:07:25;;;;;;;;;;;2.60;99.90;;;;;;4878273;29;19931;-61
2023/03/07 07:09:51;;;;;;;;;;;2.60;99.90;;;;;;4877871;29;20017;-61
2023/03/07 07:12:17;;;;;;;;;;;2.70;99.90;;;;;;4861861;29;20452;-60
2023/03/07 07:14:43;;;;;;;;;;;2.70;99.90;;;;;;4877863;29;19932;-61
2023/03/07 07:17:09;;;;;;;;;;;2.70;99.90;;;;;;4878190;29;19928;-64
2023/03/07 07:19:35;;;;;;;;;;;2.70;99.90;;;;;;4830578;29;20420;-64
2023/03/07 07:22:01;;;;;;;;;;;2.70;99.90;;;;;;4877866;29;19936;-63
2023/03/07 07:24:26;;;;;;;;;;;2.80;99.90;;;;;;4881165;29;20386;-63
2023/03/07 07:26:52;;;;;;;;;;;2.90;99.90;;;;;;4881643;29;19928;-63
2023/03/07 07:29:17;;;;;;;;;;;2.80;99.90;;;;;;4881804;29;20508;-63
2023/03/07 07:31:43;;;;;;;;;;;2.80;99.90;;;;;;4882144;29;19928;-65
2023/03/07 07:34:09;;;;;;;;;;;2.80;99.90;;;;;;4881432;29;19928;-63
2023/03/07 07:36:35;;;;;;;;;;;2.80;99.90;;;;;;4881704;29;19931;-64
2023/03/07 07:39:04;;;;;;;;;;;2.80;99.90;;;;;;4881358;29;19927;-64
2023/03/07 07:41:30;;;;;;;;;;;2.80;99.90;;;;;;4849686;29;19934;-63
2023/03/07 07:43:56;;;;;;;;;;;2.90;99.90;;;;;;4881024;29;20387;-63
2023/03/07 07:46:22;;;;;;;;;;;2.80;99.90;;;;;;4881111;29;19935;-64
2023/03/07 07:48:48;;;;;;;;;;;2.90;99.90;;;;;;4880829;29;19934;-65
2023/03/07 07:51:14;;;;;;;;;;;2.90;99.90;;;;;;4881372;29;19975;-63
2023/03/07 07:53:39;;;;;;;;;;;2.90;99.90;;;;;;4881467;29;19967;-63
2023/03/07 07:56:05;;;;;;;;;;;2.90;99.90;;;;;;4881025;29;20287;-64
2023/03/07 07:58:31;;;;;;;;;;;2.90;99.90;;;;;;4864929;29;19928;-63
2023/03/07 08:00:56;;;;;;;;;;;2.90;99.90;;;;;;4881028;29;19976;-62
2023/03/07 08:03:22;;;;;;;;;;;2.90;99.90;;;;;;4881078;29;19928;-63
2023/03/07 08:05:48;;;;;;;;;;;3.00;99.90;;;;;;4881206;29;19928;-63
2023/03/07 08:08:15;;;;;;;;;;;3.00;99.90;;;;;;4880683;29;19928;-62
2023/03/07 08:10:42;;;;;;;;;;;3.00;99.90;;;;;;4881049;29;19928;-63
2023/03/07 08:13:12;;;;;;;;;;;3.00;99.90;;;;;;4880711;29;19951;-63
2023/03/07 08:15:38;;;;;;;;;;;3.10;99.90;;;;;;4880952;29;19928;-63
2023/03/07 08:18:03;;;;;;;;;;;3.10;99.90;;;;;;4864246;29;19935;-63
2023/03/07 08:20:29;;;;;;;;;;;3.20;99.90;;;;;;4880907;29;19935;-63
2023/03/07 08:22:54;;;;;;;;;;;3.30;99.90;;;;;;4864161;29;20030;-64
2023/03/07 08:25:21;;;;;;;;;;;3.30;99.90;;;;;;4864064;29;20268;-63
2023/03/07 08:27:51;;;;;;;;;;;3.40;99.90;;;;;;4880825;29;19928;-63
2023/03/07 08:30:17;;;;;;;;;;;3.40;99.90;;;;;;4863950;29;19927;-64
2023/03/07 08:32:43;;;;;;;;;;;3.40;99.90;;;;;;4864145;29;19928;-64
2023/03/07 08:35:09;;;;;;;;;;;3.40;99.90;;;;;;4862569;29;19928;-64
2023/03/07 08:37:34;;;;;;;;;;;3.30;99.90;;;;;;4879646;29;19931;-64
2023/03/07 08:40:00;;;;;;;;;;;3.20;99.90;;;;;;4880153;29;19935;-64
2023/03/07 08:42:26;;;;;;;;;;;3.10;99.90;;;;;;4879599;29;19928;-63
2023/03/07 08:44:51;;;;;;;;;;;3.20;99.90;;;;;;4880264;29;20328;-63
2023/03/07 08:47:17;;;;;;;;;;;3.10;99.90;;;;;;4880024;29;19979;-64
2023/03/07 08:49:42;;;;;;;;;;;3.00;99.90;;;;;;4880579;29;19968;-63
2023/03/07 08:52:08;;;;;;;;;;;3.00;99.90;;;;;;4879988;29;20333;-64
2023/03/07 08:54:33;;;;;;;;;;;3.00;99.90;;;;;;4880027;29;19986;-64
2023/03/07 08:56:59;;;;;;;;;;;3.10;99.90;;;;;;4863276;29;19928;-64
2023/03/07 08:59:25;;;;;;;;;;;3.30;99.90;;;;;;4863229;29;19984;-64
2023/03/07 09:01:50;;;;;;;;;;;3.40;99.90;;;;;;4863487;29;19932;-63
2023/03/07 09:04:16;;;;;;;;;;;3.60;99.90;;;;;;4879644;29;19932;-63
2023/03/07 09:06:42;;;;;;;;;;;3.60;99.90;;;;;;4862986;29;20034;-64
2023/03/07 09:09:08;;;;;;;;;;;3.60;99.90;;;;;;4848205;29;19928;-64
2023/03/07 09:11:33;;;;;;;;;;;3.80;99.90;;;;;;4863094;29;20006;-64
2023/03/07 09:13:59;;;;;;;;;;;3.70;99.90;;;;;;4879940;29;19983;-63
2023/03/07 09:16:24;;;;;;;;;;;3.70;99.90;;;;;;4862883;29;19928;-63
2023/03/07 09:18:50;;;;;;;;;;;3.70;99.90;;;;;;4879928;29;19928;-63
2023/03/07 09:21:15;;;;;;;;;;;3.60;99.90;;;;;;4879613;29;19931;-63
2023/03/07 09:23:42;;;;;;;;;;;3.60;99.90;;;;;;4862918;29;19953;-64
2023/03/07 09:26:07;;;;;;;;;;;3.60;99.90;;;;;;4879293;29;19984;-64
2023/03/07 09:28:33;;;;;;;;;;;3.70;99.90;;;;;;4847941;29;19983;-63
2023/03/07 09:30:59;;;;;;;;;;;3.70;99.90;;;;;;4863194;29;19927;-64
2023/03/07 09:33:24;;;;;;;;;;;3.70;99.90;;;;;;4847664;29;20401;-64
2023/03/07 09:35:50;;;;;;;;;;;3.70;99.90;;;;;;4880015;29;20279;-64
2023/03/07 09:38:15;;;;;;;;;;;3.80;99.90;;;;;;4863013;29;19991;-64
2023/03/07 09:40:44;;;;;;;;;;;3.90;99.90;;;;;;4879629;29;19927;-64
2023/03/07 09:43:20;;;;;;;;;;;3.90;99.90;;;;;;4879066;29;19927;-65
2023/03/07 09:45:45;;;;;;;;;;;4.00;99.90;;;;;;4847379;29;19974;-66
2023/03/07 09:48:19;;;;;;;;;;;3.90;99.90;;;;;;4878817;29;19978;-65
2023/03/07 09:50:53;;;;;;;;;;;3.90;99.90;;;;;;4879421;29;19938;-65
2023/03/07 09:53:38;;;;;;;;;;;3.90;99.90;;;;;;4862523;29;20309;-64
2023/03/07 09:56:10;;;;;;;;;;;3.80;99.90;;;;;;4879182;29;20025;-65
2023/03/07 09:58:37;;;;;;;;;;;3.80;99.90;;;;;;4862701;29;19947;-65
2023/03/07 10:01:06;;;;;;;;;;;3.80;99.90;;;;;;4879069;29;19950;-64
2023/03/07 10:03:36;;;;;;;;;;;3.90;99.90;;;;;;4862611;29;20060;-65
2023/03/07 10:06:17;;;;;;;;;;;3.90;99.90;;;;;;4862355;29;19927;-65
2023/03/07 10:08:43;;;;;;;;;;;4.00;99.90;;;;;;4878985;29;19935;-65
2023/03/07 10:11:21;;;;;;;;;;;4.00;99.90;;;;;;4878705;29;19932;-66
2023/03/07 10:14:06;;;;;;;;;;;4.10;99.90;;;;;;4862520;29;19928;-64
2023/03/07 10:16:55;;;;;;;;;;;4.20;99.90;;;;;;4878550;29;19954;-64
2023/03/07 10:19:29;;;;;;;;;;;4.30;99.90;;;;;;4878030;29;20022;-64
2023/03/07 10:22:11;;;;;;;;;;;4.30;99.90;;;;;;4862565;29;19931;-65
2023/03/07 10:24:36;;;;;;;;;;;4.40;99.90;;;;;;4846922;29;19928;-64
2023/03/07 10:27:06;;;;;;;;;;;4.70;99.90;;;;;;4847006;29;19935;-64
2023/03/07 10:29:38;;;;;;;;;;;4.60;99.90;;;;;;4878205;29;19928;-64
2023/03/07 10:32:13;;;;;;;;;;;4.70;99.90;;;;;;4862062;29;20438;-65
2023/03/07 10:34:39;;;;;;;;;;;4.70;99.90;;;;;;4878792;29;19927;-65
2023/03/07 10:37:18;;;;;;;;;;;4.70;99.90;;;;;;4878355;29;19996;-64
2023/03/07 10:39:44;;;;;;;;;;;4.70;99.90;;;;;;4878430;29;19931;-64
2023/03/07 10:42:10;;;;;;;;;;;4.60;99.90;;;;;;4878504;29;19935;-65
2023/03/07 10:44:36;;;;;;;;;;;4.60;99.90;;;;;;4861594;29;19932;-65
2023/03/07 10:47:02;;;;;;;;;;;4.60;99.90;;;;;;4861813;29;19928;-65
2023/03/07 10:49:29;;;;;;;;;;;4.70;99.90;;;;;;4878140;29;19975;-64
2023/03/07 10:51:59;;;;;;;;;;;4.70;99.90;;;;;;4878637;29;19983;-64
2023/03/07 10:54:29;;;;;;;;;;;4.70;99.90;;;;;;4878135;29;19939;-65
2023/03/07 10:57:03;;;;;;;;;;;4.80;99.90;;;;;;4878454;29;19936;-63
2023/03/07 10:59:28;;;;;;;;;;;4.90;99.90;;;;;;4880865;29;20395;-64
2023/03/07 11:01:56;;;;;;;;;;;5.00;99.90;;;;;;4882384;29;19939;-64
2023/03/07 11:04:22;;;;;;;;;;;5.00;99.90;;;;;;4881738;29;19928;-64
2023/03/07 11:06:51;;;;;;;;;;;5.10;99.90;;;;;;4882192;29;19935;-64
2023/03/07 11:09:29;;;;;;;;;;;5.20;99.90;;;;;;4882189;29;19973;-63
2023/03/07 11:11:59;;;;;;;;;;;5.20;99.90;;;;;;4849692;29;20003;-65
2023/03/07 11:14:26;;;;;;;;;;;5.20;99.90;;;;;;4881790;29;19964;-64
2023/03/07 11:17:01;;;;;;;;;;;5.30;99.90;;;;;;4882089;29;19934;-64
2023/03/07 11:19:31;;;;;;;;;;;5.40;99.90;;;;;;4881684;29;19927;-64
2023/03/07 11:21:58;;;;;;;;;;;5.60;99.90;;;;;;4865502;29;19932;-64
2023/03/07 11:24:28;;;;;;;;;;;5.80;99.90;;;;;;4849472;29;20333;-64
2023/03/07 11:26:54;;;;;;;;;;;5.90;99.90;;;;;;4882063;29;19928;-65
2023/03/07 11:29:19;;;;;;;;;;;6.00;99.90;;;;;;4865502;29;20442;-65
2023/03/07 11:31:57;;;;;;;;;;;5.90;99.90;;;;;;4881710;29;19934;-65
2023/03/07 11:34:22;;;;;;;;;;;5.60;99.90;;;;;;4881578;29;20280;-65
2023/03/07 11:36:52;;;;;;;;;;;5.20;99.90;;;;;;4865366;29;19952;-65
2023/03/07 11:39:36;;;;;;;;;;;4.90;99.90;;;;;;4865295;29;20051;-65
2023/03/07 11:42:10;;;;;;;;;;;4.80;99.90;;;;;;4881271;29;19927;-65
2023/03/07 11:44:50;;;;;;;;;;;4.60;99.90;;;;;;4881005;29;19976;-65
2023/03/07 11:47:28;;;;;;;;;;;4.60;99.90;;;;;;4864518;29;19934;-65
2023/03/07 11:50:00;;;;;;;;;;;4.60;99.90;;;;;;4849626;29;19928;-64
2023/03/07 11:52:35;;;;;;;;;;;4.60;99.90;;;;;;4881104;29;19944;-64
2023/03/07 11:55:17;;;;;;;;;;;4.50;99.90;;;;;;4865005;29;19996;-64
2023/03/07 11:57:52;;;;;;;;;;;4.50;99.90;;;;;;4881179;29;19979;-65
2023/03/07 12:00:21;;;;;;;;;;;4.40;99.90;;;;;;4881186;29;19934;-65
2023/03/07 12:02:46;;;;;;;;;;;4.50;99.90;;;;;;4849123;29;19931;-65
2023/03/07 12:05:20;;;;;;;;;;;4.50;99.90;;;;;;4881239;29;19935;-64
2023/03/07 12:07:45;;;;;;;;;;;4.50;99.90;;;;;;4849072;29;19943;-64
2023/03/07 12:10:29;;;;;;;;;;;4.70;99.90;;;;;;4880737;29;19928;-65
2023/03/07 12:13:04;;;;;;;;;;;4.80;99.90;;;;;;4881237;29;20379;-65
2023/03/07 12:15:33;;;;;;;;;;;4.90;99.90;;;;;;4880845;29;20302;-65
2023/03/07 12:18:14;;;;;;;;;;;5.00;99.90;;;;;;4880752;29;19986;-65
2023/03/07 12:20:55;;;;;;;;;;;5.20;99.90;;;;;;4880750;29;19929;-65
2023/03/07 12:23:32;;;;;;;;;;;5.30;99.90;;;;;;4864188;29;20391;-64
2023/03/07 12:25:59;;;;;;;;;;;5.30;99.90;;;;;;4864497;29;20273;-65
2023/03/07 12:28:35;;;;;;;;;;;5.50;99.90;;;;;;4864066;29;19939;-64
2023/03/07 12:31:13;;;;;;;;;;;5.60;99.90;;;;;;4880892;29;19988;-64
2023/03/07 12:33:44;;;;;;;;;;;5.70;99.90;;;;;;4880485;29;19943;-65
2023/03/07 12:36:17;;;;;;;;;;;5.90;99.90;;;;;;4879676;29;19991;-67
2023/03/07 12:39:06;;;;;;;;;;;6.00;99.90;;;;;;4863924;29;19928;-64
2023/03/07 12:41:51;;;;;;;;;;;6.00;99.90;;;;;;4845974;29;19932;-64
2023/03/07 12:44:36;;;;;;;;;;;6.00;99.90;;;;;;4848496;29;19935;-65
2023/03/07 12:47:12;;;;;;;;;;;6.00;99.90;;;;;;4879337;29;19968;-64
2023/03/07 12:49:43;;;;;;;;;;;6.10;99.90;;;;;;4863684;29;20021;-64
2023/03/07 12:52:23;;;;;;;;;;;6.20;99.90;;;;;;4880566;29;20288;-64
2023/03/07 12:54:56;;;;;;;;;;;6.20;99.90;;;;;;4880168;29;19928;-64
2023/03/07 12:57:25;;;;;;;;;;;6.30;99.90;;;;;;4863970;29;19950;-64
2023/03/07 12:59:52;;;;;;;;;;;6.40;99.90;;;;;;4879808;29;19928;-64
2023/03/07 13:02:17;;;;;;;;;;;6.40;99.90;;;;;;4848122;29;20383;-64
2023/03/07 13:04:43;;;;;;;;;;;6.30;99.90;;;;;;4879915;29;19956;-64
2023/03/07 13:07:35;;;;;;;;;;;6.20;99.90;;;;;;4848134;29;19928;-65
2023/03/07 13:10:03;;;;;;;;;;;6.10;99.90;;;;;;4877235;29;20400;-64
2023/03/07 13:12:36;;;;;;;;;;;6.00;99.90;;;;;;4863497;29;19934;-65
2023/03/07 13:15:17;;;;;;;;;;;6.00;99.90;;;;;;4879988;29;19927;-64
2023/03/07 13:17:42;;;;;;;;;;;6.00;99.90;;;;;;4879513;29;20384;-64
2023/03/07 13:20:13;;;;;;;;;;;5.90;99.90;;;;;;4879479;29;19928;-65
2023/03/07 13:22:39;;;;;;;;;;;5.90;99.90;;;;;;4879383;29;20046;-64
2023/03/07 13:25:23;;;;;;;;;;;6.00;99.90;;;;;;4863103;29;19975;-64
2023/03/07 13:27:53;;;;;;;;;;;6.10;99.90;;;;;;4879479;29;19931;-64
2023/03/07 13:30:20;;;;;;;;;;;6.20;99.90;;;;;;4863181;29;20291;-63
2023/03/07 13:32:55;;;;;;;;;;;6.00;99.90;;;;;;4878125;29;19932;-64
2023/03/07 13:35:27;;;;;;;;;;;5.80;99.90;;;;;;4862966;29;19927;-65
2023/03/07 13:37:55;;;;;;;;;;;5.60;99.90;;;;;;4878813;29;20447;-63
2023/03/07 13:40:33;;;;;;;;;;;5.40;99.90;;;;;;4863116;29;19928;-63
2023/03/07 13:42:59;;;;;;;;;;;5.20;99.90;;;;;;4862607;29;19928;-65
2023/03/07 13:45:37;;;;;;;;;;;5.00;99.90;;;;;;4847491;29;19932;-65
2023/03/07 13:48:23;;;;;;;;;;;5.00;99.90;;;;;;4878695;29;19955;-64
2023/03/07 13:50:48;;;;;;;;;;;4.90;99.90;;;;;;4859030;29;20491;-63
2023/03/07 13:53:19;;;;;;;;;;;4.80;99.90;;;;;;4878549;29;20014;-63
2023/03/07 13:55:55;;;;;;;;;;;4.80;99.90;;;;;;4862432;29;19931;-64
2023/03/07 13:58:30;;;;;;;;;;;4.80;99.90;;;;;;4879580;29;19928;-64
2023/03/07 14:01:00;;;;;;;;;;;4.70;99.90;;;;;;4878848;29;19928;-63
2023/03/07 14:03:31;;;;;;;;;;;4.80;99.90;;;;;;4862523;29;19927;-63
2023/03/07 14:05:58;;;;;;;;;;;4.80;99.90;;;;;;4878975;29;20017;-63
2023/03/07 14:08:26;;;;;;;;;;;4.70;99.90;;;;;;4878832;29;19928;-63
2023/03/07 14:10:52;;;;;;;;;;;4.70;99.90;;;;;;4878817;29;20026;-63
2023/03/07 14:13:41;;;;;;;;;;;4.80;99.90;;;;;;4877431;29;19943;-63
2023/03/07 14:16:10;;;;;;;;;;;4.90;99.90;;;;;;4872916;29;19937;-64
2023/03/07 14:18:42;;;;;;;;;;;4.90;99.90;;;;;;4862585;29;19928;-63
2023/03/07 14:21:17;;;;;;;;;;;5.00;99.90;;;;;;4862383;29;20089;-63
2023/03/07 14:23:51;;;;;;;;;;;5.10;99.90;;;;;;4862304;29;19960;-64
2023/03/07 14:26:19;;;;;;;;;;;5.10;99.90;;;;;;4878989;29;19978;-63
2023/03/07 14:28:49;;;;;;;;;;;5.10;99.90;;;;;;4878728;29;20348;-63
2023/03/07 14:31:28;;;;;;;;;;;5.20;99.90;;;;;;4878338;29;20404;-63
2023/03/07 14:33:54;;;;;;;;;;;5.20;99.90;;;;;;4878328;29;19935;-64
2023/03/07 14:36:23;;;;;;;;;;;5.20;99.90;;;;;;4846910;29;20004;-64